sensor_id;sensor_type;location;lat;lon;timestamp;P1;durP1;ratioP1;P2;durP2;ratioP2
77544;SDS011;66672;50.328;7.610;2024-03-23T00:55:12;37.75;;;30.85;;
77544;SDS011;66672;50.328;7.610;2024-03-23T00:57:37;40.95;;;31.75;;
77544;SDS011;66672;50.328;7.610;2024-03-23T01:00:03;39.10;;;30.55;;
77544;SDS011;66672;50.328;7.610;2024-03-23T01:02:30;39.78;;;31.35;;
77544;SDS011;66672;50.328;7.610;2024-03-23T01:04:56;39.08;;;31.88;;
77544;SDS011;66672;50.328;7.610;2024-03-23T01:07:21;38.42;;;31.58;;
77544;SDS011;66672;50.328;7.610;2024-03-23T01:09:46;41.13;;;30.90;;
77544;SDS011;66672;50.328;7.610;2024-03-23T01:12:11;40.67;;;30.92;;
77544;SDS011;66672;50.328;7.610;2024-03-23T01:14:36;41.40;;;32.90;;
77544;SDS011;66672;50.328;7.610;2024-03-23T01:17:02;40.88;;;32.28;;
77544;SDS011;66672;50.328;7.610;2024-03-23T01:28:18;45.20;;;38.33;;
77544;SDS011;66672;50.328;7.610;2024-03-23T01:30:46;43.42;;;33.00;;
77544;SDS011;66672;50.328;7.610;2024-03-23T01:33:11;42.25;;;32.83;;
77544;SDS011;66672;50.328;7.610;2024-03-23T01:35:37;40.50;;;32.78;;
77544;SDS011;66672;50.328;7.610;2024-03-23T01:38:02;42.83;;;32.67;;
77544;SDS011;66672;50.328;7.610;2024-03-23T01:40:27;41.33;;;31.40;;
77544;SDS011;66672;50.328;7.610;2024-03-23T01:43:02;42.35;;;31.40;;
77544;SDS011;66672;50.328;7.610;2024-03-23T01:45:28;39.83;;;32.38;;
77544;SDS011;66672;50.328;7.610;2024-03-23T01:47:54;29.67;;;26.52;;
77544;SDS011;66672;50.328;7.610;2024-03-23T01:50:20;20.95;;;19.30;;
77544;SDS011;66672;50.328;7.610;2024-03-23T01:52:45;20.85;;;19.10;;
77544;SDS011;66672;50.328;7.610;2024-03-23T01:55:11;18.63;;;17.25;;
77544;SDS011;66672;50.328;7.610;2024-03-23T01:57:37;19.35;;;17.85;;
77544;SDS011;66672;50.328;7.610;2024-03-23T02:00:02;19.05;;;17.65;;
77544;SDS011;66672;50.328;7.610;2024-03-23T02:02:28;19.17;;;17.63;;
77544;SDS011;66672;50.328;7.610;2024-03-23T02:04:53;19.50;;;17.88;;
77544;SDS011;66672;50.328;7.610;2024-03-23T02:07:18;19.67;;;18.17;;
77544;SDS011;66672;50.328;7.610;2024-03-23T02:09:43;19.75;;;18.25;;
77544;SDS011;66672;50.328;7.610;2024-03-23T02:12:08;19.02;;;17.63;;
77544;SDS011;66672;50.328;7.610;2024-03-23T02:14:34;19.90;;;18.30;;
77544;SDS011;66672;50.328;7.610;2024-03-23T02:16:59;19.25;;;17.75;;
77544;SDS011;66672;50.328;7.610;2024-03-23T02:19:24;18.30;;;16.90;;
77544;SDS011;66672;50.328;7.610;2024-03-23T02:21:49;17.73;;;16.55;;
77544;SDS011;66672;50.328;7.610;2024-03-23T02:24:14;17.17;;;16.08;;
77544;SDS011;66672;50.328;7.610;2024-03-23T02:26:39;17.15;;;16.00;;
77544;SDS011;66672;50.328;7.610;2024-03-23T02:29:05;16.95;;;15.85;;
77544;SDS011;66672;50.328;7.610;2024-03-23T02:31:30;17.20;;;16.20;;
77544;SDS011;66672;50.328;7.610;2024-03-23T02:33:55;17.17;;;16.10;;
77544;SDS011;66672;50.328;7.610;2024-03-23T02:36:20;17.95;;;16.73;;
77544;SDS011;66672;50.328;7.610;2024-03-23T02:38:46;17.60;;;16.40;;
77544;SDS011;66672;50.328;7.610;2024-03-23T02:41:11;17.42;;;16.33;;
77544;SDS011;66672;50.328;7.610;2024-03-23T02:43:37;17.10;;;15.90;;
77544;SDS011;66672;50.328;7.610;2024-03-23T02:46:02;17.73;;;16.48;;
77544;SDS011;66672;50.328;7.610;2024-03-23T02:48:29;17.58;;;16.48;;
77544;SDS011;66672;50.328;7.610;2024-03-23T02:50:54;17.15;;;15.93;;
77544;SDS011;66672;50.328;7.610;2024-03-23T02:53:19;18.13;;;16.83;;
77544;SDS011;66672;50.328;7.610;2024-03-23T02:55:44;17.60;;;16.40;;
77544;SDS011;66672;50.328;7.610;2024-03-23T02:58:09;17.77;;;16.58;;
77544;SDS011;66672;50.328;7.610;2024-03-23T03:00:35;18.25;;;16.95;;
77544;SDS011;66672;50.328;7.610;2024-03-23T03:03:00;17.92;;;16.63;;
77544;SDS011;66672;50.328;7.610;2024-03-23T03:05:25;19.00;;;17.70;;
77544;SDS011;66672;50.328;7.610;2024-03-23T03:07:50;19.90;;;18.40;;
77544;SDS011;66672;50.328;7.610;2024-03-23T03:10:15;20.10;;;18.52;;
77544;SDS011;66672;50.328;7.610;2024-03-23T03:12:41;20.77;;;19.00;;
77544;SDS011;66672;50.328;7.610;2024-03-23T03:22:11;18.45;;;16.98;;
77544;SDS011;66672;50.328;7.610;2024-03-23T03:24:37;18.95;;;17.55;;
77544;SDS011;66672;50.328;7.610;2024-03-23T03:27:02;18.98;;;17.67;;
77544;SDS011;66672;50.328;7.610;2024-03-23T03:29:28;17.80;;;16.60;;
77544;SDS011;66672;50.328;7.610;2024-03-23T03:31:59;17.67;;;16.35;;
77544;SDS011;66672;50.328;7.610;2024-03-23T03:34:25;19.02;;;17.63;;
77544;SDS011;66672;50.328;7.610;2024-03-23T03:36:50;19.13;;;17.73;;
77544;SDS011;66672;50.328;7.610;2024-03-23T03:39:15;18.23;;;16.95;;
77544;SDS011;66672;50.328;7.610;2024-03-23T03:41:41;19.08;;;17.50;;
77544;SDS011;66672;50.328;7.610;2024-03-23T03:44:06;18.50;;;17.10;;
77544;SDS011;66672;50.328;7.610;2024-03-23T03:46:32;19.00;;;17.60;;
77544;SDS011;66672;50.328;7.610;2024-03-23T03:48:57;18.95;;;17.55;;
77544;SDS011;66672;50.328;7.610;2024-03-23T03:51:22;19.08;;;17.48;;
77544;SDS011;66672;50.328;7.610;2024-03-23T03:53:47;18.73;;;17.33;;
77544;SDS011;66672;50.328;7.610;2024-03-23T03:56:13;18.77;;;17.27;;
77544;SDS011;66672;50.328;7.610;2024-03-23T03:58:38;18.52;;;17.23;;
77544;SDS011;66672;50.328;7.610;2024-03-23T04:01:05;19.15;;;17.65;;
77544;SDS011;66672;50.328;7.610;2024-03-23T04:03:30;18.13;;;16.83;;
77544;SDS011;66672;50.328;7.610;2024-03-23T04:05:55;18.55;;;17.13;;
77544;SDS011;66672;50.328;7.610;2024-03-23T04:08:21;18.70;;;17.25;;
77544;SDS011;66672;50.328;7.610;2024-03-23T04:10:47;18.85;;;17.48;;
77544;SDS011;66672;50.328;7.610;2024-03-23T04:13:12;18.23;;;16.95;;
77544;SDS011;66672;50.328;7.610;2024-03-23T04:15:38;17.77;;;16.52;;
77544;SDS011;66672;50.328;7.610;2024-03-23T04:18:03;17.52;;;16.40;;
77544;SDS011;66672;50.328;7.610;2024-03-23T04:20:29;18.40;;;17.10;;
77544;SDS011;66672;50.328;7.610;2024-03-23T04:22:54;17.90;;;16.75;;
77544;SDS011;66672;50.328;7.610;2024-03-23T04:25:19;17.63;;;16.50;;
77544;SDS011;66672;50.328;7.610;2024-03-23T04:27:45;17.45;;;16.27;;
77544;SDS011;66672;50.328;7.610;2024-03-23T04:30:11;17.42;;;16.23;;
77544;SDS011;66672;50.328;7.610;2024-03-23T04:32:37;16.85;;;15.77;;
77544;SDS011;66672;50.328;7.610;2024-03-23T04:35:03;17.42;;;16.33;;
77544;SDS011;66672;50.328;7.610;2024-03-23T04:37:34;17.58;;;16.33;;
77544;SDS011;66672;50.328;7.610;2024-03-23T04:40:00;17.77;;;16.60;;
77544;SDS011;66672;50.328;7.610;2024-03-23T04:42:26;17.75;;;16.45;;
77544;SDS011;66672;50.328;7.610;2024-03-23T04:44:52;16.85;;;15.75;;
77544;SDS011;66672;50.328;7.610;2024-03-23T04:47:18;17.20;;;16.10;;
77544;SDS011;66672;50.328;7.610;2024-03-23T04:49:43;16.42;;;15.43;;
77544;SDS011;66672;50.328;7.610;2024-03-23T04:52:08;17.17;;;15.88;;
77544;SDS011;66672;50.328;7.610;2024-03-23T04:54:34;16.90;;;15.80;;
77544;SDS011;66672;50.328;7.610;2024-03-23T04:56:59;16.35;;;15.35;;
77544;SDS011;66672;50.328;7.610;2024-03-23T04:59:24;16.70;;;15.60;;
77544;SDS011;66672;50.328;7.610;2024-03-23T05:01:50;16.70;;;15.50;;
77544;SDS011;66672;50.328;7.610;2024-03-23T05:04:15;16.60;;;15.43;;
77544;SDS011;66672;50.328;7.610;2024-03-23T05:06:40;16.58;;;15.38;;
77544;SDS011;66672;50.328;7.610;2024-03-23T05:09:05;15.73;;;14.77;;
77544;SDS011;66672;50.328;7.610;2024-03-23T05:11:32;16.17;;;15.18;;
77544;SDS011;66672;50.328;7.610;2024-03-23T05:13:58;16.08;;;15.10;;
77544;SDS011;66672;50.328;7.610;2024-03-23T05:16:23;16.88;;;15.68;;
77544;SDS011;66672;50.328;7.610;2024-03-23T05:18:48;16.83;;;15.73;;
77544;SDS011;66672;50.328;7.610;2024-03-23T05:21:14;17.02;;;15.82;;
77544;SDS011;66672;50.328;7.610;2024-03-23T05:23:39;17.58;;;16.27;;
77544;SDS011;66672;50.328;7.610;2024-03-23T05:26:04;17.08;;;15.65;;
77544;SDS011;66672;50.328;7.610;2024-03-23T05:28:29;16.17;;;15.25;;
77544;SDS011;66672;50.328;7.610;2024-03-23T05:30:55;17.52;;;16.23;;
77544;SDS011;66672;50.328;7.610;2024-03-23T05:33:21;16.52;;;15.52;;
77544;SDS011;66672;50.328;7.610;2024-03-23T05:35:55;17.17;;;15.85;;
77544;SDS011;66672;50.328;7.610;2024-03-23T05:38:25;17.30;;;15.93;;
77544;SDS011;66672;50.328;7.610;2024-03-23T05:40:57;17.30;;;16.00;;
77544;SDS011;66672;50.328;7.610;2024-03-23T05:43:23;17.00;;;15.70;;
77544;SDS011;66672;50.328;7.610;2024-03-23T05:45:55;16.63;;;15.63;;
77544;SDS011;66672;50.328;7.610;2024-03-23T05:48:22;17.63;;;16.38;;
77544;SDS011;66672;50.328;7.610;2024-03-23T05:50:48;17.10;;;15.80;;
77544;SDS011;66672;50.328;7.610;2024-03-23T05:53:14;16.90;;;15.68;;
77544;SDS011;66672;50.328;7.610;2024-03-23T05:55:43;17.52;;;16.13;;
77544;SDS011;66672;50.328;7.610;2024-03-23T05:58:08;17.63;;;16.33;;
77544;SDS011;66672;50.328;7.610;2024-03-23T06:00:34;18.15;;;16.77;;
77544;SDS011;66672;50.328;7.610;2024-03-23T06:02:59;19.13;;;17.50;;
77544;SDS011;66672;50.328;7.610;2024-03-23T06:05:24;19.08;;;17.60;;
77544;SDS011;66672;50.328;7.610;2024-03-23T06:07:50;18.77;;;17.25;;
77544;SDS011;66672;50.328;7.610;2024-03-23T06:10:15;19.33;;;17.83;;
77544;SDS011;66672;50.328;7.610;2024-03-23T06:12:40;18.88;;;17.42;;
77544;SDS011;66672;50.328;7.610;2024-03-23T06:15:06;19.13;;;17.73;;
77544;SDS011;66672;50.328;7.610;2024-03-23T06:17:35;20.00;;;18.13;;
77544;SDS011;66672;50.328;7.610;2024-03-23T06:20:03;19.42;;;17.92;;
77544;SDS011;66672;50.328;7.610;2024-03-23T06:22:31;19.67;;;17.92;;
77544;SDS011;66672;50.328;7.610;2024-03-23T06:24:56;19.58;;;17.77;;
77544;SDS011;66672;50.328;7.610;2024-03-23T06:27:22;19.23;;;17.73;;
77544;SDS011;66672;50.328;7.610;2024-03-23T06:29:47;20.85;;;19.08;;
77544;SDS011;66672;50.328;7.610;2024-03-23T06:32:12;19.67;;;18.15;;
77544;SDS011;66672;50.328;7.610;2024-03-23T06:34:38;19.35;;;17.80;;
77544;SDS011;66672;50.328;7.610;2024-03-23T06:37:05;19.67;;;17.67;;
77544;SDS011;66672;50.328;7.610;2024-03-23T06:39:31;19.92;;;18.27;;
77544;SDS011;66672;50.328;7.610;2024-03-23T06:41:56;19.65;;;17.63;;
77544;SDS011;66672;50.328;7.610;2024-03-23T06:44:21;19.58;;;17.73;;
77544;SDS011;66672;50.328;7.610;2024-03-23T06:46:47;19.55;;;17.52;;
77544;SDS011;66672;50.328;7.610;2024-03-23T06:49:13;19.80;;;18.13;;
77544;SDS011;66672;50.328;7.610;2024-03-23T06:51:39;19.17;;;17.60;;
77544;SDS011;66672;50.328;7.610;2024-03-23T06:54:05;19.70;;;18.10;;
77544;SDS011;66672;50.328;7.610;2024-03-23T06:56:30;19.40;;;17.92;;
77544;SDS011;66672;50.328;7.610;2024-03-23T06:58:59;19.48;;;17.83;;
77544;SDS011;66672;50.328;7.610;2024-03-23T07:01:24;19.17;;;17.52;;
77544;SDS011;66672;50.328;7.610;2024-03-23T07:03:49;19.50;;;17.88;;
77544;SDS011;66672;50.328;7.610;2024-03-23T07:06:14;18.63;;;17.15;;
77544;SDS011;66672;50.328;7.610;2024-03-23T07:08:40;18.65;;;17.23;;
77544;SDS011;66672;50.328;7.610;2024-03-23T07:11:05;19.33;;;17.45;;
77544;SDS011;66672;50.328;7.610;2024-03-23T07:13:31;19.00;;;17.33;;
77544;SDS011;66672;50.328;7.610;2024-03-23T07:15:56;19.92;;;18.08;;
77544;SDS011;66672;50.328;7.610;2024-03-23T07:18:22;19.15;;;17.27;;
77544;SDS011;66672;50.328;7.610;2024-03-23T07:25:55;20.45;;;18.50;;
77544;SDS011;66672;50.328;7.610;2024-03-23T07:28:24;19.65;;;18.05;;
77544;SDS011;66672;50.328;7.610;2024-03-23T07:31:05;18.73;;;17.15;;
77544;SDS011;66672;50.328;7.610;2024-03-23T07:33:34;19.05;;;17.48;;
77544;SDS011;66672;50.328;7.610;2024-03-23T07:36:00;19.15;;;17.55;;
77544;SDS011;66672;50.328;7.610;2024-03-23T07:38:27;19.55;;;17.83;;
77544;SDS011;66672;50.328;7.610;2024-03-23T07:41:02;19.65;;;17.80;;
77544;SDS011;66672;50.328;7.610;2024-03-23T07:43:28;18.58;;;17.13;;
77544;SDS011;66672;50.328;7.610;2024-03-23T07:45:53;18.98;;;17.38;;
77544;SDS011;66672;50.328;7.610;2024-03-23T07:48:20;18.65;;;17.10;;
77544;SDS011;66672;50.328;7.610;2024-03-23T07:50:59;19.83;;;18.02;;
77544;SDS011;66672;50.328;7.610;2024-03-23T07:53:25;19.27;;;17.58;;
77544;SDS011;66672;50.328;7.610;2024-03-23T07:55:54;19.45;;;17.85;;
77544;SDS011;66672;50.328;7.610;2024-03-23T07:58:20;19.40;;;17.80;;
77544;SDS011;66672;50.328;7.610;2024-03-23T08:00:45;18.13;;;16.63;;
77544;SDS011;66672;50.328;7.610;2024-03-23T08:03:11;18.45;;;17.13;;
77544;SDS011;66672;50.328;7.610;2024-03-23T08:05:36;18.85;;;17.23;;
77544;SDS011;66672;50.328;7.610;2024-03-23T08:08:02;18.38;;;16.85;;
77544;SDS011;66672;50.328;7.610;2024-03-23T08:10:27;18.55;;;16.70;;
77544;SDS011;66672;50.328;7.610;2024-03-23T08:12:52;18.75;;;17.05;;
77544;SDS011;66672;50.328;7.610;2024-03-23T08:15:18;19.05;;;17.38;;
77544;SDS011;66672;50.328;7.610;2024-03-23T08:17:43;18.17;;;16.67;;
77544;SDS011;66672;50.328;7.610;2024-03-23T08:20:08;19.05;;;17.35;;
77544;SDS011;66672;50.328;7.610;2024-03-23T08:22:34;18.17;;;16.88;;
77544;SDS011;66672;50.328;7.610;2024-03-23T08:24:59;18.30;;;16.80;;
77544;SDS011;66672;50.328;7.610;2024-03-23T08:27:24;19.38;;;17.45;;
77544;SDS011;66672;50.328;7.610;2024-03-23T08:29:49;19.17;;;17.58;;
77544;SDS011;66672;50.328;7.610;2024-03-23T08:32:15;18.52;;;16.83;;
77544;SDS011;66672;50.328;7.610;2024-03-23T08:34:41;18.60;;;17.15;;
77544;SDS011;66672;50.328;7.610;2024-03-23T08:37:07;19.13;;;17.38;;
77544;SDS011;66672;50.328;7.610;2024-03-23T08:39:32;19.17;;;17.35;;
77544;SDS011;66672;50.328;7.610;2024-03-23T08:41:57;19.88;;;18.08;;
77544;SDS011;66672;50.328;7.610;2024-03-23T08:44:23;19.48;;;17.50;;
77544;SDS011;66672;50.328;7.610;2024-03-23T08:46:48;19.70;;;17.20;;
77544;SDS011;66672;50.328;7.610;2024-03-23T08:49:13;19.08;;;17.13;;
77544;SDS011;66672;50.328;7.610;2024-03-23T08:51:39;18.95;;;17.23;;
77544;SDS011;66672;50.328;7.610;2024-03-23T08:54:04;16.60;;;15.35;;
77544;SDS011;66672;50.328;7.610;2024-03-23T08:56:30;18.52;;;16.83;;
77544;SDS011;66672;50.328;7.610;2024-03-23T08:58:55;17.10;;;15.80;;
77544;SDS011;66672;50.328;7.610;2024-03-23T09:01:20;17.17;;;15.77;;
77544;SDS011;66672;50.328;7.610;2024-03-23T09:03:45;16.65;;;15.55;;
77544;SDS011;66672;50.328;7.610;2024-03-23T09:06:11;17.15;;;15.65;;
77544;SDS011;66672;50.328;7.610;2024-03-23T09:08:39;17.13;;;15.73;;
77544;SDS011;66672;50.328;7.610;2024-03-23T09:11:09;17.15;;;15.77;;
77544;SDS011;66672;50.328;7.610;2024-03-23T09:13:36;16.85;;;15.65;;
77544;SDS011;66672;50.328;7.610;2024-03-23T09:16:02;17.17;;;15.50;;
77544;SDS011;66672;50.328;7.610;2024-03-23T09:18:31;16.85;;;15.45;;
77544;SDS011;66672;50.328;7.610;2024-03-23T09:20:57;19.80;;;17.90;;
77544;SDS011;66672;50.328;7.610;2024-03-23T09:23:22;16.85;;;15.52;;
77544;SDS011;66672;50.328;7.610;2024-03-23T09:25:48;16.67;;;15.23;;
77544;SDS011;66672;50.328;7.610;2024-03-23T09:28:13;17.35;;;15.90;;
77544;SDS011;66672;50.328;7.610;2024-03-23T09:30:38;17.15;;;15.68;;
77544;SDS011;66672;50.328;7.610;2024-03-23T09:33:10;16.55;;;15.23;;
77544;SDS011;66672;50.328;7.610;2024-03-23T09:35:37;17.77;;;16.38;;
77544;SDS011;66672;50.328;7.610;2024-03-23T09:38:03;16.60;;;15.40;;
77544;SDS011;66672;50.328;7.610;2024-03-23T09:40:28;16.95;;;15.52;;
77544;SDS011;66672;50.328;7.610;2024-03-23T09:42:53;16.83;;;15.55;;
77544;SDS011;66672;50.328;7.610;2024-03-23T09:45:21;17.08;;;15.77;;
77544;SDS011;66672;50.328;7.610;2024-03-23T09:47:54;16.20;;;15.00;;
77544;SDS011;66672;50.328;7.610;2024-03-23T09:50:21;16.75;;;15.23;;
77544;SDS011;66672;50.328;7.610;2024-03-23T09:52:46;17.30;;;15.82;;
77544;SDS011;66672;50.328;7.610;2024-03-23T09:55:11;17.10;;;15.60;;
77544;SDS011;66672;50.328;7.610;2024-03-23T09:57:37;16.85;;;15.65;;
77544;SDS011;66672;50.328;7.610;2024-03-23T10:00:02;16.88;;;15.48;;
77544;SDS011;66672;50.328;7.610;2024-03-23T10:02:28;16.15;;;15.02;;
77544;SDS011;66672;50.328;7.610;2024-03-23T10:04:54;17.63;;;16.33;;
77544;SDS011;66672;50.328;7.610;2024-03-23T10:07:20;15.93;;;14.73;;
77544;SDS011;66672;50.328;7.610;2024-03-23T10:09:47;16.23;;;14.90;;
77544;SDS011;66672;50.328;7.610;2024-03-23T10:12:14;17.15;;;15.82;;
77544;SDS011;66672;50.328;7.610;2024-03-23T10:14:40;17.10;;;15.80;;
77544;SDS011;66672;50.328;7.610;2024-03-23T10:17:16;16.77;;;15.38;;
77544;SDS011;66672;50.328;7.610;2024-03-23T10:19:45;16.40;;;15.18;;
77544;SDS011;66672;50.328;7.610;2024-03-23T10:22:13;16.83;;;15.43;;
77544;SDS011;66672;50.328;7.610;2024-03-23T10:24:39;17.20;;;15.90;;
77544;SDS011;66672;50.328;7.610;2024-03-23T10:27:05;17.08;;;15.73;;
77544;SDS011;66672;50.328;7.610;2024-03-23T10:29:30;16.98;;;15.60;;
77544;SDS011;66672;50.328;7.610;2024-03-23T10:32:09;17.27;;;15.88;;
77544;SDS011;66672;50.328;7.610;2024-03-23T10:34:36;17.92;;;16.50;;
77544;SDS011;66672;50.328;7.610;2024-03-23T10:37:02;18.00;;;16.45;;
77544;SDS011;66672;50.328;7.610;2024-03-23T10:39:30;17.77;;;16.00;;
77544;SDS011;66672;50.328;7.610;2024-03-23T10:41:57;16.60;;;15.40;;
77544;SDS011;66672;50.328;7.610;2024-03-23T10:44:23;16.77;;;15.48;;
77544;SDS011;66672;50.328;7.610;2024-03-23T10:46:51;17.92;;;16.55;;
77544;SDS011;66672;50.328;7.610;2024-03-23T10:49:23;17.77;;;16.27;;
77544;SDS011;66672;50.328;7.610;2024-03-23T10:51:50;17.90;;;16.48;;
77544;SDS011;66672;50.328;7.610;2024-03-23T10:54:16;17.42;;;15.82;;
77544;SDS011;66672;50.328;7.610;2024-03-23T10:56:43;16.38;;;15.18;;
77544;SDS011;66672;50.328;7.610;2024-03-23T10:59:09;17.67;;;15.88;;
77544;SDS011;66672;50.328;7.610;2024-03-23T11:01:34;17.70;;;16.40;;
77544;SDS011;66672;50.328;7.610;2024-03-23T11:04:00;17.75;;;16.30;;
77544;SDS011;66672;50.328;7.610;2024-03-23T11:06:35;18.05;;;16.42;;
77544;SDS011;66672;50.328;7.610;2024-03-23T11:09:01;18.13;;;16.30;;
77544;SDS011;66672;50.328;7.610;2024-03-23T11:11:27;17.55;;;16.02;;
77544;SDS011;66672;50.328;7.610;2024-03-23T11:13:53;17.55;;;16.17;;
77544;SDS011;66672;50.328;7.610;2024-03-23T11:16:23;18.48;;;16.83;;
77544;SDS011;66672;50.328;7.610;2024-03-23T11:18:49;18.55;;;16.80;;
77544;SDS011;66672;50.328;7.610;2024-03-23T11:24:20;18.15;;;16.33;;
77544;SDS011;66672;50.328;7.610;2024-03-23T11:26:47;20.05;;;18.00;;
77544;SDS011;66672;50.328;7.610;2024-03-23T11:29:13;17.15;;;15.77;;
77544;SDS011;66672;50.328;7.610;2024-03-23T11:31:45;17.60;;;16.15;;
77544;SDS011;66672;50.328;7.610;2024-03-23T11:34:12;17.35;;;16.13;;
77544;SDS011;66672;50.328;7.610;2024-03-23T11:36:37;15.77;;;14.57;;
77544;SDS011;66672;50.328;7.610;2024-03-23T11:41:47;15.27;;;14.35;;
77544;SDS011;66672;50.328;7.610;2024-03-23T11:44:17;14.50;;;13.65;;
77544;SDS011;66672;50.328;7.610;2024-03-23T11:46:47;15.63;;;13.70;;
77544;SDS011;66672;50.328;7.610;2024-03-23T11:49:48;14.82;;;13.88;;
77544;SDS011;66672;50.328;7.610;2024-03-23T11:52:07;14.70;;;13.90;;
77544;SDS011;66672;50.328;7.610;2024-03-23T11:54:32;14.60;;;13.80;;
77544;SDS011;66672;50.328;7.610;2024-03-23T11:57:07;14.52;;;13.73;;
77544;SDS011;66672;50.328;7.610;2024-03-23T11:59:37;14.90;;;14.00;;
77544;SDS011;66672;50.328;7.610;2024-03-23T12:02:08;14.73;;;13.93;;
77544;SDS011;66672;50.328;7.610;2024-03-23T12:04:35;14.93;;;14.02;;
77544;SDS011;66672;50.328;7.610;2024-03-23T12:07:17;14.88;;;14.07;;
77544;SDS011;66672;50.328;7.610;2024-03-23T12:09:44;15.23;;;14.20;;
77544;SDS011;66672;50.328;7.610;2024-03-23T12:12:18;15.00;;;14.10;;
77544;SDS011;66672;50.328;7.610;2024-03-23T12:17:28;15.48;;;14.48;;
77544;SDS011;66672;50.328;7.610;2024-03-23T12:19:53;15.07;;;14.13;;
77544;SDS011;66672;50.328;7.610;2024-03-23T12:22:22;15.65;;;14.65;;
77544;SDS011;66672;50.328;7.610;2024-03-23T12:24:48;15.30;;;14.40;;
77544;SDS011;66672;50.328;7.610;2024-03-23T12:27:14;15.30;;;14.40;;
77544;SDS011;66672;50.328;7.610;2024-03-23T12:29:39;15.02;;;14.13;;
77544;SDS011;66672;50.328;7.610;2024-03-23T12:32:06;15.48;;;14.48;;
77544;SDS011;66672;50.328;7.610;2024-03-23T12:34:32;15.98;;;14.85;;
77544;SDS011;66672;50.328;7.610;2024-03-23T12:36:58;15.60;;;14.70;;
77544;SDS011;66672;50.328;7.610;2024-03-23T12:39:23;16.02;;;15.00;;
77544;SDS011;66672;50.328;7.610;2024-03-23T12:41:49;15.98;;;15.00;;
77544;SDS011;66672;50.328;7.610;2024-03-23T12:44:14;15.80;;;14.60;;
77544;SDS011;66672;50.328;7.610;2024-03-23T12:46:40;15.35;;;14.35;;
77544;SDS011;66672;50.328;7.610;2024-03-23T12:49:08;15.20;;;14.20;;
77544;SDS011;66672;50.328;7.610;2024-03-23T12:51:33;15.38;;;14.40;;
77544;SDS011;66672;50.328;7.610;2024-03-23T12:53:59;15.73;;;14.63;;
77544;SDS011;66672;50.328;7.610;2024-03-23T12:56:24;16.70;;;15.63;;
77544;SDS011;66672;50.328;7.610;2024-03-23T12:58:50;16.67;;;15.40;;
77544;SDS011;66672;50.328;7.610;2024-03-23T13:01:20;16.02;;;14.75;;
77544;SDS011;66672;50.328;7.610;2024-03-23T13:03:48;15.77;;;14.60;;
77544;SDS011;66672;50.328;7.610;2024-03-23T13:06:14;15.77;;;14.52;;
77544;SDS011;66672;50.328;7.610;2024-03-23T13:08:40;15.40;;;14.30;;
77544;SDS011;66672;50.328;7.610;2024-03-23T13:11:06;15.35;;;14.45;;
77544;SDS011;66672;50.328;7.610;2024-03-23T13:13:33;15.18;;;14.27;;
77544;SDS011;66672;50.328;7.610;2024-03-23T13:15:59;15.23;;;14.32;;
77544;SDS011;66672;50.328;7.610;2024-03-23T13:18:24;15.35;;;14.45;;
77544;SDS011;66672;50.328;7.610;2024-03-23T13:20:49;15.30;;;14.27;;
77544;SDS011;66672;50.328;7.610;2024-03-23T13:23:15;15.40;;;14.32;;
77544;SDS011;66672;50.328;7.610;2024-03-23T13:25:40;16.02;;;14.95;;
77544;SDS011;66672;50.328;7.610;2024-03-23T13:28:05;15.40;;;14.45;;
77544;SDS011;66672;50.328;7.610;2024-03-23T13:30:31;15.45;;;14.50;;
77544;SDS011;66672;50.328;7.610;2024-03-23T13:32:56;15.70;;;14.80;;
77544;SDS011;66672;50.328;7.610;2024-03-23T13:35:21;15.95;;;14.95;;
77544;SDS011;66672;50.328;7.610;2024-03-23T13:37:47;15.52;;;14.55;;
77544;SDS011;66672;50.328;7.610;2024-03-23T13:40:13;15.48;;;14.57;;
77544;SDS011;66672;50.328;7.610;2024-03-23T13:42:39;15.50;;;14.60;;
77544;SDS011;66672;50.328;7.610;2024-03-23T13:45:04;15.77;;;14.70;;
77544;SDS011;66672;50.328;7.610;2024-03-23T13:47:29;15.98;;;14.98;;
77544;SDS011;66672;50.328;7.610;2024-03-23T13:49:55;15.77;;;14.77;;
77544;SDS011;66672;50.328;7.610;2024-03-23T13:52:21;16.05;;;14.90;;
77544;SDS011;66672;50.328;7.610;2024-03-23T13:54:50;15.90;;;14.90;;
77544;SDS011;66672;50.328;7.610;2024-03-23T13:57:16;15.98;;;14.93;;
77544;SDS011;66672;50.328;7.610;2024-03-23T13:59:42;15.68;;;14.68;;
77544;SDS011;66672;50.328;7.610;2024-03-23T14:02:07;15.43;;;14.52;;
77544;SDS011;66672;50.328;7.610;2024-03-23T14:04:32;15.40;;;14.50;;
77544;SDS011;66672;50.328;7.610;2024-03-23T14:06:58;15.30;;;14.38;;
77544;SDS011;66672;50.328;7.610;2024-03-23T14:09:23;16.70;;;15.35;;
77544;SDS011;66672;50.328;7.610;2024-03-23T14:11:50;14.68;;;13.77;;
77544;SDS011;66672;50.328;7.610;2024-03-23T14:14:16;15.57;;;14.48;;
77544;SDS011;66672;50.328;7.610;2024-03-23T14:16:42;15.48;;;14.48;;
77544;SDS011;66672;50.328;7.610;2024-03-23T14:19:08;15.60;;;14.60;;
77544;SDS011;66672;50.328;7.610;2024-03-23T14:21:33;15.35;;;14.35;;
77544;SDS011;66672;50.328;7.610;2024-03-23T14:24:02;15.00;;;14.10;;
77544;SDS011;66672;50.328;7.610;2024-03-23T14:26:27;15.00;;;14.10;;
77544;SDS011;66672;50.328;7.610;2024-03-23T14:28:53;15.82;;;14.80;;
77544;SDS011;66672;50.328;7.610;2024-03-23T14:31:18;15.45;;;14.38;;
77544;SDS011;66672;50.328;7.610;2024-03-23T14:33:44;14.68;;;13.77;;
77544;SDS011;66672;50.328;7.610;2024-03-23T14:36:13;15.10;;;14.10;;
77544;SDS011;66672;50.328;7.610;2024-03-23T14:38:38;14.93;;;14.00;;
77544;SDS011;66672;50.328;7.610;2024-03-23T14:41:04;15.10;;;14.20;;
77544;SDS011;66672;50.328;7.610;2024-03-23T14:43:29;15.70;;;14.15;;
77544;SDS011;66672;50.328;7.610;2024-03-23T14:46:05;15.38;;;14.25;;
77544;SDS011;66672;50.328;7.610;2024-03-23T14:48:31;15.10;;;14.10;;
77544;SDS011;66672;50.328;7.610;2024-03-23T14:50:57;15.68;;;14.60;;
77544;SDS011;66672;50.328;7.610;2024-03-23T14:53:24;15.35;;;14.30;;
77544;SDS011;66672;50.328;7.610;2024-03-23T14:55:50;15.50;;;14.60;;
77544;SDS011;66672;50.328;7.610;2024-03-23T14:58:15;15.35;;;14.32;;
77544;SDS011;66672;50.328;7.610;2024-03-23T15:00:41;15.35;;;14.35;;
77544;SDS011;66672;50.328;7.610;2024-03-23T15:03:06;15.38;;;14.45;;
77544;SDS011;66672;50.328;7.610;2024-03-23T15:05:31;15.40;;;14.48;;
77544;SDS011;66672;50.328;7.610;2024-03-23T15:07:57;15.38;;;14.38;;
77544;SDS011;66672;50.328;7.610;2024-03-23T15:10:23;15.48;;;14.48;;
77544;SDS011;66672;50.328;7.610;2024-03-23T15:12:48;14.93;;;14.02;;
77544;SDS011;66672;50.328;7.610;2024-03-23T15:15:14;14.70;;;13.90;;
77544;SDS011;66672;50.328;7.610;2024-03-23T15:17:40;14.80;;;13.90;;
77544;SDS011;66672;50.328;7.610;2024-03-23T15:20:09;14.55;;;13.73;;
77544;SDS011;66672;50.328;7.610;2024-03-23T15:22:36;15.05;;;14.05;;
77544;SDS011;66672;50.328;7.610;2024-03-23T15:25:02;14.68;;;13.77;;
77544;SDS011;66672;50.328;7.610;2024-03-23T15:27:27;15.07;;;14.18;;
77544;SDS011;66672;50.328;7.610;2024-03-23T15:29:52;15.00;;;14.10;;
77544;SDS011;66672;50.328;7.610;2024-03-23T15:32:18;14.77;;;13.98;;
77544;SDS011;66672;50.328;7.610;2024-03-23T15:34:43;15.02;;;13.90;;
77544;SDS011;66672;50.328;7.610;2024-03-23T15:37:08;14.57;;;13.77;;
77544;SDS011;66672;50.328;7.610;2024-03-23T15:39:33;15.57;;;14.52;;